sensor_id;sensor_type;location;lat;lon;timestamp;P1;durP1;ratioP1;P2;durP2;ratioP2
487;SDS011;16586;48.976;9.584;2022-10-03T00:01:14;4.40;;;4.10;;
487;SDS011;16586;48.976;9.584;2022-10-03T00:03:50;4.30;;;4.00;;
487;SDS011;16586;48.976;9.584;2022-10-03T00:06:32;3.97;;;3.78;;
487;SDS011;16586;48.976;9.584;2022-10-03T00:09:14;5.07;;;4.80;;
487;SDS011;16586;48.976;9.584;2022-10-03T00:11:56;5.50;;;5.20;;
487;SDS011;16586;48.976;9.584;2022-10-03T00:14:33;6.53;;;6.13;;
487;SDS011;16586;48.976;9.584;2022-10-03T00:17:12;5.20;;;4.90;;
487;SDS011;16586;48.976;9.584;2022-10-03T00:19:45;4.90;;;4.60;;
487;SDS011;16586;48.976;9.584;2022-10-03T00:22:23;5.70;;;5.40;;
487;SDS011;16586;48.976;9.584;2022-10-03T00:25:02;4.90;;;4.60;;
487;SDS011;16586;48.976;9.584;2022-10-03T00:27:42;4.40;;;4.10;;
487;SDS011;16586;48.976;9.584;2022-10-03T00:30:14;4.60;;;4.30;;
487;SDS011;16586;48.976;9.584;2022-10-03T00:32:56;4.30;;;4.00;;
487;SDS011;16586;48.976;9.584;2022-10-03T00:35:40;5.57;;;5.28;;
487;SDS011;16586;48.976;9.584;2022-10-03T00:38:20;5.30;;;5.00;;
487;SDS011;16586;48.976;9.584;2022-10-03T00:41:02;5.32;;;5.03;;
487;SDS011;16586;48.976;9.584;2022-10-03T00:43:42;4.38;;;4.07;;
487;SDS011;16586;48.976;9.584;2022-10-03T00:49:46;5.20;;;4.88;;
487;SDS011;16586;48.976;9.584;2022-10-03T00:52:31;4.10;;;3.90;;
487;SDS011;16586;48.976;9.584;2022-10-03T00:55:15;4.50;;;4.20;;
487;SDS011;16586;48.976;9.584;2022-10-03T00:57:59;4.70;;;4.47;;
487;SDS011;16586;48.976;9.584;2022-10-03T01:00:35;5.75;;;5.05;;
487;SDS011;16586;48.976;9.584;2022-10-03T01:03:07;4.85;;;4.55;;
487;SDS011;16586;48.976;9.584;2022-10-03T01:05:51;5.15;;;4.85;;
487;SDS011;16586;48.976;9.584;2022-10-03T01:08:30;4.40;;;4.00;;
487;SDS011;16586;48.976;9.584;2022-10-03T01:11:14;4.78;;;4.47;;
487;SDS011;16586;48.976;9.584;2022-10-03T01:13:53;4.45;;;4.15;;
487;SDS011;16586;48.976;9.584;2022-10-03T01:16:29;4.45;;;4.20;;
487;SDS011;16586;48.976;9.584;2022-10-03T01:19:06;5.90;;;5.60;;
487;SDS011;16586;48.976;9.584;2022-10-03T01:21:56;6.78;;;6.40;;
487;SDS011;16586;48.976;9.584;2022-10-03T01:24:48;5.93;;;5.63;;
487;SDS011;16586;48.976;9.584;2022-10-03T01:27:22;5.43;;;5.13;;
487;SDS011;16586;48.976;9.584;2022-10-03T01:29:57;5.10;;;4.80;;
487;SDS011;16586;48.976;9.584;2022-10-03T01:32:56;5.22;;;4.93;;
487;SDS011;16586;48.976;9.584;2022-10-03T01:35:30;5.30;;;5.00;;
487;SDS011;16586;48.976;9.584;2022-10-03T01:38:09;4.63;;;4.32;;
487;SDS011;16586;48.976;9.584;2022-10-03T01:40:46;4.10;;;3.90;;
487;SDS011;16586;48.976;9.584;2022-10-03T01:43:19;4.33;;;4.03;;
487;SDS011;16586;48.976;9.584;2022-10-03T01:46:02;5.05;;;4.75;;
487;SDS011;16586;48.976;9.584;2022-10-03T01:48:38;4.40;;;4.10;;
487;SDS011;16586;48.976;9.584;2022-10-03T01:51:10;4.50;;;4.20;;
487;SDS011;16586;48.976;9.584;2022-10-03T01:53:45;5.60;;;5.30;;
487;SDS011;16586;48.976;9.584;2022-10-03T01:56:23;5.88;;;5.63;;
487;SDS011;16586;48.976;9.584;2022-10-03T01:58:57;5.35;;;5.05;;
487;SDS011;16586;48.976;9.584;2022-10-03T02:01:33;5.20;;;4.90;;
487;SDS011;16586;48.976;9.584;2022-10-03T02:04:11;5.10;;;4.80;;
487;SDS011;16586;48.976;9.584;2022-10-03T02:06:48;5.20;;;4.90;;
487;SDS011;16586;48.976;9.584;2022-10-03T02:09:27;4.90;;;4.60;;
487;SDS011;16586;48.976;9.584;2022-10-03T02:12:03;6.32;;;5.90;;
487;SDS011;16586;48.976;9.584;2022-10-03T02:14:38;5.60;;;5.30;;
487;SDS011;16586;48.976;9.584;2022-10-03T02:17:21;7.03;;;6.63;;
487;SDS011;16586;48.976;9.584;2022-10-03T02:19:59;6.40;;;6.00;;
487;SDS011;16586;48.976;9.584;2022-10-03T02:22:35;5.80;;;5.50;;
487;SDS011;16586;48.976;9.584;2022-10-03T02:25:19;5.70;;;5.40;;
487;SDS011;16586;48.976;9.584;2022-10-03T02:28:08;6.13;;;5.82;;
487;SDS011;16586;48.976;9.584;2022-10-03T02:31:05;5.00;;;4.70;;
487;SDS011;16586;48.976;9.584;2022-10-03T02:34:12;4.70;;;4.40;;
487;SDS011;16586;48.976;9.584;2022-10-03T02:39:57;6.70;;;6.33;;
487;SDS011;16586;48.976;9.584;2022-10-03T02:49:02;5.78;;;5.47;;
487;SDS011;16586;48.976;9.584;2022-10-03T02:52:08;5.38;;;5.07;;
487;SDS011;16586;48.976;9.584;2022-10-03T02:54:56;6.55;;;6.15;;
487;SDS011;16586;48.976;9.584;2022-10-03T03:00:55;5.80;;;5.50;;
487;SDS011;16586;48.976;9.584;2022-10-03T03:03:46;5.30;;;5.00;;
487;SDS011;16586;48.976;9.584;2022-10-03T03:06:41;6.10;;;5.80;;
487;SDS011;16586;48.976;9.584;2022-10-03T03:16:07;6.30;;;5.43;;
487;SDS011;16586;48.976;9.584;2022-10-03T03:18:56;6.00;;;5.70;;
487;SDS011;16586;48.976;9.584;2022-10-03T03:21:38;5.45;;;5.15;;
487;SDS011;16586;48.976;9.584;2022-10-03T03:27:12;5.80;;;5.50;;
487;SDS011;16586;48.976;9.584;2022-10-03T03:29:55;5.88;;;5.43;;
487;SDS011;16586;48.976;9.584;2022-10-03T03:32:34;5.75;;;5.45;;
487;SDS011;16586;48.976;9.584;2022-10-03T03:35:13;5.90;;;5.60;;
487;SDS011;16586;48.976;9.584;2022-10-03T03:37:50;6.50;;;6.10;;
487;SDS011;16586;48.976;9.584;2022-10-03T03:40:30;8.15;;;7.75;;
487;SDS011;16586;48.976;9.584;2022-10-03T03:43:11;5.95;;;5.65;;
487;SDS011;16586;48.976;9.584;2022-10-03T03:45:54;7.40;;;7.00;;
487;SDS011;16586;48.976;9.584;2022-10-03T03:48:34;7.10;;;6.70;;
487;SDS011;16586;48.976;9.584;2022-10-03T03:51:21;6.10;;;5.80;;
487;SDS011;16586;48.976;9.584;2022-10-03T03:54:02;5.90;;;5.60;;
487;SDS011;16586;48.976;9.584;2022-10-03T03:56:57;5.60;;;5.30;;
487;SDS011;16586;48.976;9.584;2022-10-03T03:59:59;4.57;;;4.28;;
487;SDS011;16586;48.976;9.584;2022-10-03T04:02:36;4.05;;;3.85;;
487;SDS011;16586;48.976;9.584;2022-10-03T04:05:21;4.70;;;4.40;;
487;SDS011;16586;48.976;9.584;2022-10-03T04:08:10;5.40;;;5.10;;
487;SDS011;16586;48.976;9.584;2022-10-03T04:10:51;4.75;;;4.45;;
487;SDS011;16586;48.976;9.584;2022-10-03T04:13:33;5.80;;;5.50;;
487;SDS011;16586;48.976;9.584;2022-10-03T04:16:17;6.80;;;6.40;;
487;SDS011;16586;48.976;9.584;2022-10-03T04:19:29;6.25;;;5.93;;
487;SDS011;16586;48.976;9.584;2022-10-03T04:22:08;6.43;;;6.03;;
487;SDS011;16586;48.976;9.584;2022-10-03T04:24:58;6.68;;;6.28;;
487;SDS011;16586;48.976;9.584;2022-10-03T04:27:37;5.28;;;4.97;;
487;SDS011;16586;48.976;9.584;2022-10-03T04:30:17;6.53;;;6.13;;
487;SDS011;16586;48.976;9.584;2022-10-03T04:32:55;6.25;;;5.93;;
487;SDS011;16586;48.976;9.584;2022-10-03T04:35:41;5.90;;;5.60;;
487;SDS011;16586;48.976;9.584;2022-10-03T04:38:22;5.80;;;5.50;;
487;SDS011;16586;48.976;9.584;2022-10-03T04:41:04;6.85;;;6.45;;
487;SDS011;16586;48.976;9.584;2022-10-03T04:43:42;6.10;;;5.80;;
487;SDS011;16586;48.976;9.584;2022-10-03T04:46:19;5.53;;;5.23;;
487;SDS011;16586;48.976;9.584;2022-10-03T04:48:55;5.55;;;5.25;;
487;SDS011;16586;48.976;9.584;2022-10-03T04:51:32;6.88;;;6.47;;
487;SDS011;16586;48.976;9.584;2022-10-03T04:54:11;7.05;;;6.72;;
487;SDS011;16586;48.976;9.584;2022-10-03T04:56:47;7.30;;;6.90;;
487;SDS011;16586;48.976;9.584;2022-10-03T04:59:33;6.20;;;5.90;;
487;SDS011;16586;48.976;9.584;2022-10-03T05:02:17;6.45;;;6.05;;
487;SDS011;16586;48.976;9.584;2022-10-03T05:05:13;6.03;;;5.82;;
487;SDS011;16586;48.976;9.584;2022-10-03T05:07:49;7.00;;;6.60;;
487;SDS011;16586;48.976;9.584;2022-10-03T05:10:29;6.60;;;6.20;;
487;SDS011;16586;48.976;9.584;2022-10-03T05:13:11;7.28;;;6.90;;
487;SDS011;16586;48.976;9.584;2022-10-03T05:15:46;7.07;;;6.68;;
487;SDS011;16586;48.976;9.584;2022-10-03T05:18:22;6.57;;;6.18;;
487;SDS011;16586;48.976;9.584;2022-10-03T05:21:01;7.13;;;6.68;;
487;SDS011;16586;48.976;9.584;2022-10-03T05:23:40;7.40;;;6.90;;
487;SDS011;16586;48.976;9.584;2022-10-03T05:26:15;7.50;;;6.63;;
487;SDS011;16586;48.976;9.584;2022-10-03T05:28:48;7.60;;;7.00;;
487;SDS011;16586;48.976;9.584;2022-10-03T05:31:22;7.07;;;6.68;;
487;SDS011;16586;48.976;9.584;2022-10-03T05:34:00;6.85;;;6.45;;
487;SDS011;16586;48.976;9.584;2022-10-03T05:36:44;7.78;;;7.38;;
487;SDS011;16586;48.976;9.584;2022-10-03T05:39:29;6.90;;;6.50;;
487;SDS011;16586;48.976;9.584;2022-10-03T05:42:11;7.10;;;6.70;;
487;SDS011;16586;48.976;9.584;2022-10-03T05:44:57;10.63;;;9.70;;
487;SDS011;16586;48.976;9.584;2022-10-03T05:47:29;8.98;;;8.48;;
487;SDS011;16586;48.976;9.584;2022-10-03T05:50:23;9.25;;;8.75;;
487;SDS011;16586;48.976;9.584;2022-10-03T05:56:03;18.90;;;9.57;;
487;SDS011;16586;48.976;9.584;2022-10-03T05:58:42;8.70;;;8.20;;
487;SDS011;16586;48.976;9.584;2022-10-03T06:01:30;15.07;;;9.85;;
487;SDS011;16586;48.976;9.584;2022-10-03T06:04:31;8.43;;;7.80;;
487;SDS011;16586;48.976;9.584;2022-10-03T06:07:20;9.88;;;9.25;;
487;SDS011;16586;48.976;9.584;2022-10-03T06:10:01;11.32;;;10.02;;
487;SDS011;16586;48.976;9.584;2022-10-03T06:12:50;11.82;;;9.00;;
487;SDS011;16586;48.976;9.584;2022-10-03T06:15:37;10.60;;;9.80;;
487;SDS011;16586;48.976;9.584;2022-10-03T06:18:25;11.07;;;10.25;;
487;SDS011;16586;48.976;9.584;2022-10-03T06:21:23;12.38;;;9.40;;
487;SDS011;16586;48.976;9.584;2022-10-03T06:24:24;10.65;;;8.43;;
487;SDS011;16586;48.976;9.584;2022-10-03T06:27:35;8.80;;;8.30;;
487;SDS011;16586;48.976;9.584;2022-10-03T06:30:42;11.15;;;10.40;;
487;SDS011;16586;48.976;9.584;2022-10-03T06:36:44;16.63;;;9.55;;
487;SDS011;16586;48.976;9.584;2022-10-03T06:43:01;11.63;;;9.38;;
487;SDS011;16586;48.976;9.584;2022-10-03T06:46:14;8.80;;;8.30;;
487;SDS011;16586;48.976;9.584;2022-10-03T06:52:14;8.75;;;8.25;;
487;SDS011;16586;48.976;9.584;2022-10-03T06:58:16;7.63;;;7.22;;
487;SDS011;16586;48.976;9.584;2022-10-03T07:01:20;8.00;;;7.40;;
487;SDS011;16586;48.976;9.584;2022-10-03T07:04:09;6.75;;;6.35;;
487;SDS011;16586;48.976;9.584;2022-10-03T07:07:13;6.00;;;5.70;;
487;SDS011;16586;48.976;9.584;2022-10-03T07:10:11;4.60;;;4.30;;
487;SDS011;16586;48.976;9.584;2022-10-03T07:19:07;7.22;;;6.82;;
487;SDS011;16586;48.976;9.584;2022-10-03T07:25:25;7.05;;;6.65;;
487;SDS011;16586;48.976;9.584;2022-10-03T07:28:24;5.90;;;5.60;;
487;SDS011;16586;48.976;9.584;2022-10-03T07:31:12;5.93;;;5.63;;
487;SDS011;16586;48.976;9.584;2022-10-03T07:34:05;5.70;;;5.05;;
487;SDS011;16586;48.976;9.584;2022-10-03T07:36:50;5.18;;;4.88;;
487;SDS011;16586;48.976;9.584;2022-10-03T07:40:01;5.10;;;4.80;;
487;SDS011;16586;48.976;9.584;2022-10-03T07:46:11;5.32;;;4.40;;
487;SDS011;16586;48.976;9.584;2022-10-03T07:49:08;3.90;;;3.70;;
487;SDS011;16586;48.976;9.584;2022-10-03T07:52:00;4.03;;;3.83;;
487;SDS011;16586;48.976;9.584;2022-10-03T07:54:51;3.80;;;3.20;;
487;SDS011;16586;48.976;9.584;2022-10-03T07:57:48;3.42;;;3.22;;
487;SDS011;16586;48.976;9.584;2022-10-03T08:00:42;4.70;;;2.90;;
487;SDS011;16586;48.976;9.584;2022-10-03T08:06:32;4.10;;;2.92;;
487;SDS011;16586;48.976;9.584;2022-10-03T08:12:13;3.90;;;3.47;;
487;SDS011;16586;48.976;9.584;2022-10-03T08:14:56;3.40;;;2.90;;
487;SDS011;16586;48.976;9.584;2022-10-03T08:20:37;3.20;;;2.60;;
487;SDS011;16586;48.976;9.584;2022-10-03T08:23:17;3.72;;;2.90;;
487;SDS011;16586;48.976;9.584;2022-10-03T08:26:15;4.95;;;2.60;;
487;SDS011;16586;48.976;9.584;2022-10-03T08:28:51;3.80;;;2.10;;
487;SDS011;16586;48.976;9.584;2022-10-03T08:34:44;3.55;;;2.20;;
487;SDS011;16586;48.976;9.584;2022-10-03T08:41:14;3.30;;;2.25;;
487;SDS011;16586;48.976;9.584;2022-10-03T08:44:15;2.67;;;1.77;;
487;SDS011;16586;48.976;9.584;2022-10-03T08:50:14;3.17;;;1.98;;
487;SDS011;16586;48.976;9.584;2022-10-03T08:55:56;2.38;;;1.67;;
487;SDS011;16586;48.976;9.584;2022-10-03T08:58:54;4.05;;;2.10;;
487;SDS011;16586;48.976;9.584;2022-10-03T09:01:51;2.35;;;1.80;;
487;SDS011;16586;48.976;9.584;2022-10-03T09:04:48;2.15;;;1.45;;
487;SDS011;16586;48.976;9.584;2022-10-03T09:11:04;2.20;;;1.30;;
487;SDS011;16586;48.976;9.584;2022-10-03T09:17:02;2.25;;;1.40;;
487;SDS011;16586;48.976;9.584;2022-10-03T09:26:10;2.30;;;1.30;;
487;SDS011;16586;48.976;9.584;2022-10-03T09:29:09;2.80;;;1.23;;
487;SDS011;16586;48.976;9.584;2022-10-03T09:38:15;2.45;;;1.20;;
487;SDS011;16586;48.976;9.584;2022-10-03T09:41:30;3.50;;;1.42;;
487;SDS011;16586;48.976;9.584;2022-10-03T09:47:50;2.92;;;1.35;;
487;SDS011;16586;48.976;9.584;2022-10-03T09:50:53;2.00;;;1.20;;
487;SDS011;16586;48.976;9.584;2022-10-03T09:53:38;2.30;;;1.20;;
487;SDS011;16586;48.976;9.584;2022-10-03T10:05:45;3.13;;;1.70;;
487;SDS011;16586;48.976;9.584;2022-10-03T10:11:29;2.60;;;1.33;;
487;SDS011;16586;48.976;9.584;2022-10-03T10:14:14;2.40;;;1.13;;
487;SDS011;16586;48.976;9.584;2022-10-03T10:20:15;3.28;;;1.50;;
487;SDS011;16586;48.976;9.584;2022-10-03T10:22:58;2.47;;;1.40;;
487;SDS011;16586;48.976;9.584;2022-10-03T10:28:47;4.15;;;1.50;;
487;SDS011;16586;48.976;9.584;2022-10-03T10:31:42;2.50;;;1.30;;
487;SDS011;16586;48.976;9.584;2022-10-03T10:34:50;3.03;;;1.70;;
487;SDS011;16586;48.976;9.584;2022-10-03T10:38:15;2.92;;;1.38;;
487;SDS011;16586;48.976;9.584;2022-10-03T10:41:04;2.72;;;1.58;;
487;SDS011;16586;48.976;9.584;2022-10-03T10:47:12;2.75;;;1.80;;
487;SDS011;16586;48.976;9.584;2022-10-03T10:50:17;3.47;;;1.90;;
487;SDS011;16586;48.976;9.584;2022-10-03T11:06:17;3.08;;;1.98;;
487;SDS011;16586;48.976;9.584;2022-10-03T11:21:41;3.22;;;1.60;;
487;SDS011;16586;48.976;9.584;2022-10-03T11:24:40;2.60;;;1.30;;
487;SDS011;16586;48.976;9.584;2022-10-03T11:30:51;2.50;;;1.50;;
487;SDS011;16586;48.976;9.584;2022-10-03T11:33:46;2.90;;;1.90;;
487;SDS011;16586;48.976;9.584;2022-10-03T11:39:34;4.10;;;2.37;;
487;SDS011;16586;48.976;9.584;2022-10-03T11:42:12;4.17;;;2.27;;
487;SDS011;16586;48.976;9.584;2022-10-03T11:44:49;3.25;;;2.35;;
487;SDS011;16586;48.976;9.584;2022-10-03T11:47:34;2.92;;;2.08;;
487;SDS011;16586;48.976;9.584;2022-10-03T11:50:15;4.05;;;2.35;;
487;SDS011;16586;48.976;9.584;2022-10-03T11:53:11;2.80;;;1.48;;
487;SDS011;16586;48.976;9.584;2022-10-03T11:55:49;2.53;;;1.53;;
487;SDS011;16586;48.976;9.584;2022-10-03T11:58:30;2.17;;;1.42;;
487;SDS011;16586;48.976;9.584;2022-10-03T12:01:11;3.60;;;1.65;;
487;SDS011;16586;48.976;9.584;2022-10-03T12:03:50;3.95;;;1.70;;
487;SDS011;16586;48.976;9.584;2022-10-03T12:06:26;3.42;;;1.90;;
487;SDS011;16586;48.976;9.584;2022-10-03T12:09:25;3.10;;;1.70;;
487;SDS011;16586;48.976;9.584;2022-10-03T12:12:00;3.60;;;1.70;;
487;SDS011;16586;48.976;9.584;2022-10-03T12:14:37;2.97;;;1.50;;
487;SDS011;16586;48.976;9.584;2022-10-03T12:17:10;3.20;;;1.60;;
487;SDS011;16586;48.976;9.584;2022-10-03T12:19:42;2.22;;;1.30;;
487;SDS011;16586;48.976;9.584;2022-10-03T12:22:21;2.00;;;1.40;;
487;SDS011;16586;48.976;9.584;2022-10-03T12:25:03;2.70;;;1.50;;
487;SDS011;16586;48.976;9.584;2022-10-03T12:27:42;2.17;;;1.40;;
487;SDS011;16586;48.976;9.584;2022-10-03T12:30:17;2.50;;;1.35;;
487;SDS011;16586;48.976;9.584;2022-10-03T12:32:48;2.00;;;1.40;;
487;SDS011;16586;48.976;9.584;2022-10-03T12:35:32;2.63;;;1.30;;
487;SDS011;16586;48.976;9.584;2022-10-03T12:38:13;1.97;;;1.20;;
487;SDS011;16586;48.976;9.584;2022-10-03T12:40:55;2.63;;;1.10;;
487;SDS011;16586;48.976;9.584;2022-10-03T12:43:38;3.97;;;1.40;;
487;SDS011;16586;48.976;9.584;2022-10-03T12:46:15;2.80;;;1.20;;
487;SDS011;16586;48.976;9.584;2022-10-03T12:48:51;1.30;;;1.00;;
487;SDS011;16586;48.976;9.584;2022-10-03T12:51:29;2.30;;;1.30;;
487;SDS011;16586;48.976;9.584;2022-10-03T12:54:06;3.28;;;1.40;;
487;SDS011;16586;48.976;9.584;2022-10-03T12:56:42;3.13;;;1.27;;
487;SDS011;16586;48.976;9.584;2022-10-03T12:59:14;2.13;;;1.10;;
487;SDS011;16586;48.976;9.584;2022-10-03T13:04:51;3.17;;;1.10;;
487;SDS011;16586;48.976;9.584;2022-10-03T13:07:42;1.90;;;1.10;;
487;SDS011;16586;48.976;9.584;2022-10-03T13:10:18;2.67;;;1.40;;
487;SDS011;16586;48.976;9.584;2022-10-03T13:12:56;1.90;;;0.95;;
487;SDS011;16586;48.976;9.584;2022-10-03T13:15:39;2.22;;;1.30;;
487;SDS011;16586;48.976;9.584;2022-10-03T13:18:32;2.50;;;1.40;;
487;SDS011;16586;48.976;9.584;2022-10-03T13:21:08;4.20;;;1.70;;
487;SDS011;16586;48.976;9.584;2022-10-03T13:23:42;2.25;;;1.02;;
487;SDS011;16586;48.976;9.584;2022-10-03T13:26:14;2.97;;;1.00;;
487;SDS011;16586;48.976;9.584;2022-10-03T13:31:41;1.75;;;1.08;;
487;SDS011;16586;48.976;9.584;2022-10-03T13:34:20;2.92;;;1.20;;
487;SDS011;16586;48.976;9.584;2022-10-03T13:36:52;2.03;;;1.00;;
487;SDS011;16586;48.976;9.584;2022-10-03T13:39:22;2.17;;;0.90;;
487;SDS011;16586;48.976;9.584;2022-10-03T13:42:01;1.40;;;0.75;;
487;SDS011;16586;48.976;9.584;2022-10-03T13:44:37;1.95;;;1.00;;
487;SDS011;16586;48.976;9.584;2022-10-03T13:47:11;1.90;;;1.10;;
487;SDS011;16586;48.976;9.584;2022-10-03T13:49:58;2.00;;;0.90;;
487;SDS011;16586;48.976;9.584;2022-10-03T13:52:32;1.90;;;0.90;;
487;SDS011;16586;48.976;9.584;2022-10-03T13:55:12;1.90;;;0.90;;
487;SDS011;16586;48.976;9.584;2022-10-03T13:57:48;1.65;;;0.80;;
487;SDS011;16586;48.976;9.584;2022-10-03T14:00:43;1.90;;;1.00;;
487;SDS011;16586;48.976;9.584;2022-10-03T14:03:20;3.17;;;1.10;;
487;SDS011;16586;48.976;9.584;2022-10-03T14:05:56;3.67;;;1.15;;
487;SDS011;16586;48.976;9.584;2022-10-03T14:08:35;2.80;;;1.20;;
487;SDS011;16586;48.976;9.584;2022-10-03T14:11:24;1.90;;;1.00;;
487;SDS011;16586;48.976;9.584;2022-10-03T14:14:13;2.83;;;1.60;;
487;SDS011;16586;48.976;9.584;2022-10-03T14:16:55;1.70;;;1.20;;
487;SDS011;16586;48.976;9.584;2022-10-03T14:19:31;2.90;;;1.73;;
487;SDS011;16586;48.976;9.584;2022-10-03T14:22:22;2.53;;;1.40;;
487;SDS011;16586;48.976;9.584;2022-10-03T14:25:01;3.03;;;1.67;;
487;SDS011;16586;48.976;9.584;2022-10-03T14:27:43;2.50;;;1.60;;
487;SDS011;16586;48.976;9.584;2022-10-03T14:30:15;1.88;;;1.20;;
487;SDS011;16586;48.976;9.584;2022-10-03T14:33:00;3.97;;;1.20;;
487;SDS011;16586;48.976;9.584;2022-10-03T14:35:38;3.28;;;1.20;;
487;SDS011;16586;48.976;9.584;2022-10-03T14:38:14;1.90;;;1.30;;
487;SDS011;16586;48.976;9.584;2022-10-03T14:41:10;2.70;;;1.40;;
487;SDS011;16586;48.976;9.584;2022-10-03T14:43:43;1.75;;;0.95;;
487;SDS011;16586;48.976;9.584;2022-10-03T14:46:14;4.20;;;2.00;;
487;SDS011;16586;48.976;9.584;2022-10-03T14:48:46;3.10;;;2.20;;
487;SDS011;16586;48.976;9.584;2022-10-03T14:51:18;2.83;;;1.70;;
487;SDS011;16586;48.976;9.584;2022-10-03T14:53:50;1.90;;;1.10;;
487;SDS011;16586;48.976;9.584;2022-10-03T14:56:19;1.80;;;1.20;;
487;SDS011;16586;48.976;9.584;2022-10-03T14:58:49;2.38;;;1.20;;
487;SDS011;16586;48.976;9.584;2022-10-03T15:01:18;2.00;;;1.52;;
487;SDS011;16586;48.976;9.584;2022-10-03T15:03:52;2.53;;;1.58;;
487;SDS011;16586;48.976;9.584;2022-10-03T15:06:34;2.17;;;1.60;;
487;SDS011;16586;48.976;9.584;2022-10-03T15:09:18;2.20;;;1.30;;
487;SDS011;16586;48.976;9.584;2022-10-03T15:11:51;2.40;;;1.30;;
487;SDS011;16586;48.976;9.584;2022-10-03T15:14:24;2.05;;;1.30;;
487;SDS011;16586;48.976;9.584;2022-10-03T15:16:54;2.42;;;1.48;;
487;SDS011;16586;48.976;9.584;2022-10-03T15:19:26;1.97;;;1.40;;
487;SDS011;16586;48.976;9.584;2022-10-03T15:21:57;2.20;;;1.40;;
487;SDS011;16586;48.976;9.584;2022-10-03T15:24:30;1.80;;;1.60;;
487;SDS011;16586;48.976;9.584;2022-10-03T15:27:00;2.42;;;1.50;;
487;SDS011;16586;48.976;9.584;2022-10-03T15:29:29;2.70;;;1.87;;
487;SDS011;16586;48.976;9.584;2022-10-03T15:31:57;2.33;;;1.40;;
487;SDS011;16586;48.976;9.584;2022-10-03T15:34:27;2.47;;;1.27;;
487;SDS011;16586;48.976;9.584;2022-10-03T15:36:57;1.77;;;1.40;;
487;SDS011;16586;48.976;9.584;2022-10-03T15:39:29;5.60;;;5.15;;
487;SDS011;16586;48.976;9.584;2022-10-03T15:42:00;6.60;;;6.20;;
487;SDS011;16586;48.976;9.584;2022-10-03T15:44:30;3.40;;;3.20;;
487;SDS011;16586;48.976;9.584;2022-10-03T15:47:03;2.08;;;1.80;;
487;SDS011;16586;48.976;9.584;2022-10-03T15:49:37;2.30;;;1.70;;
487;SDS011;16586;48.976;9.584;2022-10-03T15:52:07;10.68;;;10.10;;
487;SDS011;16586;48.976;9.584;2022-10-03T15:54:39;3.40;;;3.20;;
487;SDS011;16586;48.976;9.584;2022-10-03T15:57:15;2.55;;;1.83;;
487;SDS011;16586;48.976;9.584;2022-10-03T15:59:48;1.52;;;1.20;;
487;SDS011;16586;48.976;9.584;2022-10-03T16:02:18;3.60;;;1.83;;
487;SDS011;16586;48.976;9.584;2022-10-03T16:04:52;2.60;;;1.80;;
487;SDS011;16586;48.976;9.584;2022-10-03T16:07:22;2.15;;;1.83;;
487;SDS011;16586;48.976;9.584;2022-10-03T16:09:59;2.85;;;1.58;;
487;SDS011;16586;48.976;9.584;2022-10-03T16:12:44;2.17;;;1.77;;
487;SDS011;16586;48.976;9.584;2022-10-03T16:15:20;2.50;;;1.80;;
487;SDS011;16586;48.976;9.584;2022-10-03T16:17:51;1.60;;;1.30;;
487;SDS011;16586;48.976;9.584;2022-10-03T16:20:23;2.50;;;1.80;;
487;SDS011;16586;48.976;9.584;2022-10-03T16:22:54;1.60;;;1.20;;
487;SDS011;16586;48.976;9.584;2022-10-03T16:25:23;3.17;;;2.58;;
487;SDS011;16586;48.976;9.584;2022-10-03T16:27:53;2.50;;;2.00;;
487;SDS011;16586;48.976;9.584;2022-10-03T16:30:25;2.80;;;1.80;;
487;SDS011;16586;48.976;9.584;2022-10-03T16:32:59;2.40;;;1.90;;
487;SDS011;16586;48.976;9.584;2022-10-03T16:35:33;2.60;;;2.00;;
487;SDS011;16586;48.976;9.584;2022-10-03T16:38:03;3.30;;;2.07;;
487;SDS011;16586;48.976;9.584;2022-10-03T16:40:33;3.45;;;2.28;;
487;SDS011;16586;48.976;9.584;2022-10-03T16:43:02;2.60;;;1.80;;
487;SDS011;16586;48.976;9.584;2022-10-03T16:45:34;3.70;;;2.10;;
487;SDS011;16586;48.976;9.584;2022-10-03T16:48:09;3.37;;;1.90;;
487;SDS011;16586;48.976;9.584;2022-10-03T16:50:56;2.50;;;1.70;;
487;SDS011;16586;48.976;9.584;2022-10-03T16:53:23;2.90;;;2.20;;
487;SDS011;16586;48.976;9.584;2022-10-03T16:55:51;2.80;;;1.87;;
487;SDS011;16586;48.976;9.584;2022-10-03T16:58:21;2.08;;;1.80;;
487;SDS011;16586;48.976;9.584;2022-10-03T17:00:54;2.88;;;1.90;;
487;SDS011;16586;48.976;9.584;2022-10-03T17:03:27;2.60;;;1.73;;
487;SDS011;16586;48.976;9.584;2022-10-03T17:06:01;2.72;;;2.58;;
487;SDS011;16586;48.976;9.584;2022-10-03T17:08:33;2.73;;;2.43;;
487;SDS011;16586;48.976;9.584;2022-10-03T17:11:16;2.35;;;2.03;;
487;SDS011;16586;48.976;9.584;2022-10-03T17:13:46;1.90;;;1.80;;
487;SDS011;16586;48.976;9.584;2022-10-03T17:16:19;3.03;;;2.25;;
487;SDS011;16586;48.976;9.584;2022-10-03T17:18:58;4.40;;;3.85;;
487;SDS011;16586;48.976;9.584;2022-10-03T17:21:35;3.70;;;3.50;;
487;SDS011;16586;48.976;9.584;2022-10-03T17:24:06;3.55;;;2.40;;
487;SDS011;16586;48.976;9.584;2022-10-03T17:26:37;2.60;;;2.40;;
487;SDS011;16586;48.976;9.584;2022-10-03T17:29:08;2.20;;;2.00;;
487;SDS011;16586;48.976;9.584;2022-10-03T17:31:40;2.15;;;2.00;;
487;SDS011;16586;48.976;9.584;2022-10-03T17:34:12;1.90;;;1.77;;
487;SDS011;16586;48.976;9.584;2022-10-03T17:39:55;2.92;;;2.47;;
487;SDS011;16586;48.976;9.584;2022-10-03T17:42:29;3.50;;;2.25;;
487;SDS011;16586;48.976;9.584;2022-10-03T17:45:11;2.30;;;2.10;;
487;SDS011;16586;48.976;9.584;2022-10-03T17:47:52;2.53;;;2.03;;
487;SDS011;16586;48.976;9.584;2022-10-03T17:50:22;2.80;;;2.53;;
487;SDS011;16586;48.976;9.584;2022-10-03T17:52:54;2.85;;;2.30;;
487;SDS011;16586;48.976;9.584;2022-10-03T17:55:26;2.50;;;2.20;;
487;SDS011;16586;48.976;9.584;2022-10-03T17:57:57;2.80;;;2.40;;
487;SDS011;16586;48.976;9.584;2022-10-03T18:00:30;2.67;;;2.47;;
487;SDS011;16586;48.976;9.584;2022-10-03T18:03:00;3.00;;;2.80;;
487;SDS011;16586;48.976;9.584;2022-10-03T18:05:32;3.20;;;3.00;;
487;SDS011;16586;48.976;9.584;2022-10-03T18:08:04;3.00;;;2.60;;
487;SDS011;16586;48.976;9.584;2022-10-03T18:10:35;3.10;;;2.90;;
487;SDS011;16586;48.976;9.584;2022-10-03T18:13:12;3.90;;;3.20;;
487;SDS011;16586;48.976;9.584;2022-10-03T18:15:51;3.60;;;3.00;;
487;SDS011;16586;48.976;9.584;2022-10-03T18:21:39;3.40;;;3.20;;
487;SDS011;16586;48.976;9.584;2022-10-03T18:24:21;2.80;;;2.60;;
487;SDS011;16586;48.976;9.584;2022-10-03T18:27:01;2.30;;;2.00;;
487;SDS011;16586;48.976;9.584;2022-10-03T18:29:35;2.30;;;2.10;;
487;SDS011;16586;48.976;9.584;2022-10-03T18:32:13;2.30;;;2.20;;
487;SDS011;16586;48.976;9.584;2022-10-03T18:34:43;2.80;;;2.55;;
487;SDS011;16586;48.976;9.584;2022-10-03T18:37:45;3.30;;;3.10;;
487;SDS011;16586;48.976;9.584;2022-10-03T18:40:21;4.05;;;3.85;;
487;SDS011;16586;48.976;9.584;2022-10-03T18:42:54;3.78;;;3.60;;
487;SDS011;16586;48.976;9.584;2022-10-03T18:45:27;3.42;;;3.20;;
487;SDS011;16586;48.976;9.584;2022-10-03T18:47:58;2.97;;;2.78;;
487;SDS011;16586;48.976;9.584;2022-10-03T18:50:33;3.20;;;2.40;;
487;SDS011;16586;48.976;9.584;2022-10-03T18:53:13;3.35;;;2.60;;
487;SDS011;16586;48.976;9.584;2022-10-03T18:55:43;4.07;;;3.88;;
487;SDS011;16586;48.976;9.584;2022-10-03T18:58:18;6.43;;;6.03;;
487;SDS011;16586;48.976;9.584;2022-10-03T19:00:49;7.93;;;7.30;;
487;SDS011;16586;48.976;9.584;2022-10-03T19:03:21;4.88;;;4.57;;
487;SDS011;16586;48.976;9.584;2022-10-03T19:05:52;4.32;;;4.03;;
487;SDS011;16586;48.976;9.584;2022-10-03T19:08:24;7.10;;;6.70;;
487;SDS011;16586;48.976;9.584;2022-10-03T19:10:55;6.15;;;5.85;;
487;SDS011;16586;48.976;9.584;2022-10-03T19:13:30;5.33;;;4.30;;
487;SDS011;16586;48.976;9.584;2022-10-03T19:16:11;4.53;;;3.83;;
487;SDS011;16586;48.976;9.584;2022-10-03T19:18:42;3.90;;;3.17;;
487;SDS011;16586;48.976;9.584;2022-10-03T19:21:13;3.30;;;3.10;;
487;SDS011;16586;48.976;9.584;2022-10-03T19:23:45;3.53;;;3.40;;
487;SDS011;16586;48.976;9.584;2022-10-03T19:26:20;4.50;;;4.25;;